Time;durP1;ratioP1;P1;durP2;ratioP2;P2;SDS_P1;SDS_P2;PMS_P1;PMS_P2;Temp;Humidity;BMP_temperature;BMP_pressure;BME280_temperature;BME280_humidity;BME280_pressure;Samples;Min_cycle;Max_cycle;Signal;HPM_P1;HPM_P2
2021/10/14 00:01:18;;;;;;;35.75;16.83;;;;;;;14.99;78.67;102685.13;4835487;29;20108;-66
2021/10/14 00:03:43;;;;;;;39.75;17.67;;;;;;;14.96;78.93;102675.41;4807759;29;20584;-66
2021/10/14 00:06:10;;;;;;;36.58;16.88;;;;;;;14.98;79.15;102679.00;4815219;29;20076;-67
2021/10/14 00:08:35;;;;;;;29.80;15.63;;;;;;;15.05;78.84;102676.50;4817394;29;22476;-67
2021/10/14 00:11:01;;;;;;;35.55;16.15;;;;;;;15.02;78.85;102672.94;4831799;29;20045;-67
2021/10/14 00:13:26;;;;;;;30.77;14.43;;;;;;;15.05;78.70;102669.50;4829496;29;20066;-66
2021/10/14 00:15:52;;;;;;;38.35;17.50;;;;;;;15.03;78.89;102668.59;4810265;29;20085;-67
2021/10/14 00:18:19;;;;;;;35.42;16.85;;;;;;;15.00;78.87;102669.38;4824344;29;20403;-67
2021/10/14 00:20:45;;;;;;;37.53;17.08;;;;;;;15.00;78.95;102666.75;4839072;29;20067;-67
2021/10/14 00:23:10;;;;;;;36.90;17.73;;;;;;;14.91;79.22;102665.66;4795468;29;20531;-68
2021/10/14 00:25:36;;;;;;;37.38;17.75;;;;;;;14.89;79.49;102656.84;4833835;29;20143;-66
2021/10/14 00:28:04;;;;;;;38.20;17.33;;;;;;;15.12;78.67;102654.78;4814816;29;20031;-67
2021/10/14 00:30:30;;;;;;;39.92;17.33;;;;;;;15.19;78.41;102651.41;4822512;29;20610;-66
2021/10/14 00:32:55;;;;;;;38.03;17.00;;;;;;;15.24;78.11;102652.44;4834513;29;20657;-67
2021/10/14 00:35:20;;;;;;;33.25;15.52;;;;;;;15.27;78.12;102656.00;4828369;29;20411;-68
2021/10/14 00:37:47;;;;;;;35.00;15.90;;;;;;;15.27;77.93;102653.38;4819702;29;20510;-67
2021/10/14 00:40:16;;;;;;;39.92;15.73;;;;;;;15.23;77.98;102645.41;4811992;29;20397;-67
2021/10/14 00:42:45;;;;;;;39.97;15.77;;;;;;;15.28;77.97;102649.91;4828848;29;20463;-66
2021/10/14 00:45:12;;;;;;;31.25;13.95;;;;;;;15.35;77.89;102656.19;4815726;29;20553;-67
2021/10/14 00:47:38;;;;;;;28.63;13.25;;;;;;;15.42;77.48;102647.59;4816593;29;20053;-67
2021/10/14 00:50:17;;;;;;;32.60;15.00;;;;;;;15.40;77.59;102638.78;4832140;29;20057;-66
2021/10/14 00:52:52;;;;;;;34.40;15.25;;;;;;;15.43;77.55;102642.34;4822645;29;20425;-67
2021/10/14 00:55:20;;;;;;;36.88;14.30;;;;;;;15.44;77.42;102633.59;4805844;29;21005;-67
2021/10/14 00:57:47;;;;;;;37.90;14.60;;;;;;;15.40;77.81;102639.66;4814576;29;20045;-67
2021/10/14 01:00:13;;;;;;;32.90;14.00;;;;;;;15.40;77.63;102626.53;4810661;29;20582;-67
2021/10/14 01:02:39;;;;;;;37.08;15.27;;;;;;;15.41;77.76;102633.56;4814469;29;20160;-66
2021/10/14 01:05:05;;;;;;;34.03;14.73;;;;;;;15.43;77.79;102631.81;4817368;29;20151;-67
2021/10/14 01:07:30;;;;;;;41.17;15.57;;;;;;;15.43;77.93;102638.81;4834878;29;20566;-67
2021/10/14 01:09:56;;;;;;;40.50;14.90;;;;;;;15.47;77.96;102634.53;4833430;29;20037;-66
2021/10/14 01:12:22;;;;;;;40.13;14.85;;;;;;;15.49;78.21;102635.47;4822689;29;20147;-67
2021/10/14 01:14:47;;;;;;;38.13;14.48;;;;;;;15.49;77.75;102628.44;4833141;29;20114;-68
2021/10/14 01:17:13;;;;;;;31.70;13.30;;;;;;;15.50;77.90;102629.31;4838666;29;20100;-67
2021/10/14 01:19:40;;;;;;;36.00;13.45;;;;;;;15.51;77.84;102624.09;4828901;29;20049;-67
2021/10/14 01:22:08;;;;;;;31.35;12.10;;;;;;;15.54;77.85;102623.34;4825300;29;20689;-66
2021/10/14 01:24:54;;;;;;;32.83;12.30;;;;;;;15.57;77.58;102626.00;4811105;29;20319;-67
2021/10/14 01:27:27;;;;;;;32.20;12.35;;;;;;;15.59;77.74;102621.69;4832411;29;20033;-67
2021/10/14 01:29:53;;;;;;;29.40;11.98;;;;;;;15.59;77.46;102611.16;4830626;29;21712;-67
2021/10/14 01:32:18;;;;;;;34.40;12.30;;;;;;;15.57;77.80;102608.50;4826466;29;20136;-67
2021/10/14 01:34:44;;;;;;;33.55;12.20;;;;;;;15.62;77.59;102609.47;4819421;29;20570;-66
2021/10/14 01:37:09;;;;;;;35.45;12.48;;;;;;;15.60;77.46;102607.69;4829494;29;20049;-68
2021/10/14 01:39:35;;;;;;;34.20;12.52;;;;;;;15.59;77.70;102604.16;4833339;29;20041;-68
2021/10/14 01:42:01;;;;;;;36.17;13.30;;;;;;;15.59;77.84;102603.28;4829902;29;20087;-68
2021/10/14 01:44:26;;;;;;;29.02;11.15;;;;;;;15.62;77.76;102598.06;4801525;29;20651;-69
2021/10/14 01:46:52;;;;;;;31.83;12.80;;;;;;;15.59;77.86;102600.66;4815924;29;20690;-66
2021/10/14 01:49:17;;;;;;;32.40;11.90;;;;;;;15.62;77.81;102603.31;4816332;29;20499;-69
2021/10/14 01:51:43;;;;;;;33.28;12.20;;;;;;;15.62;77.71;102609.47;4833725;29;20055;-67
2021/10/14 01:54:09;;;;;;;28.42;11.43;;;;;;;15.63;77.47;102598.09;4828593;29;20505;-67
2021/10/14 01:56:34;;;;;;;35.08;11.48;;;;;;;15.65;77.52;102600.78;4809902;29;20048;-67
2021/10/14 01:59:00;;;;;;;34.00;12.00;;;;;;;15.62;77.80;102604.22;4808001;29;20125;-67
2021/10/14 02:01:25;;;;;;;33.88;12.55;;;;;;;15.62;77.56;102605.94;4817737;29;20971;-67
2021/10/14 02:03:50;;;;;;;32.03;11.75;;;;;;;15.61;77.67;102602.47;4821508;29;20069;-67
2021/10/14 02:06:16;;;;;;;36.72;12.95;;;;;;;15.60;77.81;102599.81;4820448;29;20499;-67
2021/10/14 02:08:41;;;;;;;40.40;13.45;;;;;;;15.62;77.83;102601.59;4836599;29;20080;-67
2021/10/14 02:11:07;;;;;;;40.72;14.18;;;;;;;15.62;78.33;102601.59;4835531;29;20432;-68
2021/10/14 02:13:32;;;;;;;33.22;12.48;;;;;;;15.66;77.74;102598.19;4814527;29;20045;-67
2021/10/14 02:15:58;;;;;;;41.03;14.60;;;;;;;15.64;77.85;102602.50;4832225;29;20139;-67
2021/10/14 02:18:23;;;;;;;38.63;14.32;;;;;;;15.65;77.96;102593.78;4806902;29;20747;-67
2021/10/14 02:20:48;;;;;;;47.22;15.88;;;;;;;15.68;77.95;102596.44;4835644;29;20391;-67
2021/10/14 02:23:14;;;;;;;43.55;15.23;;;;;;;15.70;77.86;102596.50;4818863;29;20047;-67
2021/10/14 02:25:39;;;;;;;50.58;17.70;;;;;;;15.68;77.88;102599.06;4824771;29;20116;-69
2021/10/14 02:28:04;;;;;;;51.10;17.15;;;;;;;15.66;78.17;102594.66;4839331;29;20765;-67
2021/10/14 02:30:30;;;;;;;51.47;16.88;;;;;;;15.67;77.76;102592.06;4825660;29;20709;-67
2021/10/14 02:32:55;;;;;;;46.58;16.92;;;;;;;15.68;77.52;102585.03;4820414;29;20041;-67
2021/10/14 02:35:20;;;;;;;46.33;17.77;;;;;;;15.64;77.56;102584.09;4834593;29;20059;-67
2021/10/14 02:37:46;;;;;;;53.63;19.25;;;;;;;15.30;78.93;102584.25;4823614;29;20080;-67
2021/10/14 02:40:11;;;;;;;54.72;19.15;;;;;;;15.48;78.04;102584.63;4827304;29;20077;-67
2021/10/14 02:42:37;;;;;;;56.35;19.67;;;;;;;15.53;77.77;102575.13;4817628;29;20640;-67
2021/10/14 02:45:04;;;;;;;55.47;19.75;;;;;;;15.54;77.79;102576.91;4835946;29;20049;-67
2021/10/14 02:47:29;;;;;;;58.15;19.80;;;;;;;15.50;77.97;102564.50;4817192;29;20140;-67
2021/10/14 02:49:55;;;;;;;53.25;18.92;;;;;;;15.51;77.87;102568.91;4837000;29;20046;-67
2021/10/14 02:52:20;;;;;;;57.83;19.45;;;;;;;15.51;77.87;102565.38;4795882;29;20132;-66
2021/10/14 02:54:45;;;;;;;47.00;17.98;;;;;;;15.56;77.67;102569.03;4830571;29;20412;-67
2021/10/14 02:57:11;;;;;;;55.80;19.20;;;;;;;15.58;77.90;102575.22;4811784;29;20308;-67
2021/10/14 02:59:39;;;;;;;55.35;19.35;;;;;;;15.58;78.01;102583.97;4832422;29;20087;-67
2021/10/14 03:02:04;;;;;;;53.47;18.67;;;;;;;15.56;77.78;102583.06;4838375;29;20055;-67
2021/10/14 03:04:36;;;;;;;52.92;18.48;;;;;;;15.62;77.78;102579.66;4826876;29;20380;-67
2021/10/14 03:07:07;;;;;;;43.08;16.05;;;;;;;15.65;78.00;102574.47;4835249;29;20869;-67
2021/10/14 03:09:56;;;;;;;46.45;16.65;;;;;;;15.70;78.12;102583.34;4817680;29;20049;-67
2021/10/14 03:12:21;;;;;;;41.72;16.23;;;;;;;15.75;77.89;102573.78;4823751;29;20527;-68
2021/10/14 03:14:46;;;;;;;41.20;16.02;;;;;;;15.76;77.98;102570.31;4805419;29;20068;-67
2021/10/14 03:17:12;;;;;;;46.38;15.75;;;;;;;15.79;78.08;102575.66;4817259;29;20388;-67
2021/10/14 03:19:37;;;;;;;39.63;14.30;;;;;;;15.76;77.92;102570.31;4836938;29;20104;-67
2021/10/14 03:22:03;;;;;;;38.63;14.32;;;;;;;15.77;77.93;102569.47;4829730;29;20048;-69
2021/10/14 03:24:29;;;;;;;36.58;12.98;;;;;;;15.78;78.02;102580.00;4811779;29;20632;-66
2021/10/14 03:26:56;;;;;;;31.65;11.90;;;;;;;15.79;77.86;102578.28;4815160;29;20117;-66
2021/10/14 03:29:23;;;;;;;28.52;9.18;;;;;;;15.82;77.97;102566.06;4831957;29;20044;-66
2021/10/14 03:31:48;;;;;;;25.77;8.88;;;;;;;15.82;77.79;102576.56;4815992;29;20045;-66
2021/10/14 03:34:15;;;;;;;20.45;7.72;;;;;;;15.83;77.80;102580.09;4813869;29;20061;-66
2021/10/14 03:36:40;;;;;;;20.45;7.70;;;;;;;15.82;77.78;102573.94;4835544;29;20380;-66
2021/10/14 03:39:06;;;;;;;22.55;7.40;;;;;;;15.80;77.86;102569.50;4809911;29;20148;-66
2021/10/14 03:41:31;;;;;;;17.10;6.82;;;;;;;15.75;78.05;102573.78;4830302;29;20110;-66
2021/10/14 03:43:57;;;;;;;18.55;6.38;;;;;;;15.77;78.01;102564.19;4830459;29;20052;-67
2021/10/14 03:46:22;;;;;;;20.58;6.68;;;;;;;15.77;77.80;102558.94;4823897;29;20045;-66
2021/10/14 03:48:48;;;;;;;19.73;7.05;;;;;;;15.80;77.71;102565.13;4819206;29;20068;-67
2021/10/14 03:51:14;;;;;;;11.32;5.03;;;;;;;15.81;77.74;102560.75;4824859;29;20081;-67
2021/10/14 03:53:42;;;;;;;18.33;6.88;;;;;;;15.76;77.73;102554.53;4837768;29;20037;-67
2021/10/14 03:56:11;;;;;;;17.70;6.78;;;;;;;15.77;77.60;102559.81;4821300;29;20514;-67
2021/10/14 03:58:38;;;;;;;16.85;6.88;;;;;;;15.74;77.97;102556.22;4811434;29;20063;-66
2021/10/14 04:01:03;;;;;;;22.80;6.95;;;;;;;15.70;77.80;102564.94;4832857;29;20049;-66
2021/10/14 04:03:29;;;;;;;16.70;6.82;;;;;;;15.68;77.63;102564.91;4821449;29;20047;-66
2021/10/14 04:05:58;;;;;;;20.85;6.95;;;;;;;15.70;77.79;102563.19;4837711;29;20072;-69
2021/10/14 04:08:30;;;;;;;20.67;6.20;;;;;;;15.70;77.74;102572.81;4827223;29;20380;-67
2021/10/14 04:10:55;;;;;;;16.63;6.50;;;;;;;15.69;77.76;102568.41;4833206;29;20051;-66
2021/10/14 04:13:21;;;;;;;17.38;7.00;;;;;;;15.61;77.87;102570.03;4829158;29;20040;-68
2021/10/14 04:15:48;;;;;;;16.73;6.25;;;;;;;15.66;77.55;102576.25;4834420;29;20049;-66
2021/10/14 04:18:14;;;;;;;25.00;7.40;;;;;;;15.64;77.73;102568.34;4820882;29;21042;-66
2021/10/14 04:21:08;;;;;;;16.50;6.55;;;;;;;15.58;78.00;102575.22;4832904;29;20442;-68
2021/10/14 04:23:42;;;;;;;19.38;6.70;;;;;;;15.62;77.67;102571.78;4824910;29;20049;-66
2021/10/14 04:26:13;;;;;;;23.13;7.03;;;;;;;15.60;77.83;102577.03;4831427;29;20054;-67
2021/10/14 04:28:40;;;;;;;16.67;6.57;;;;;;;15.61;77.79;102568.28;4821616;29;20084;-66
2021/10/14 04:31:06;;;;;;;17.95;6.70;;;;;;;15.59;77.67;102564.72;4812996;29;20045;-69
2021/10/14 04:33:32;;;;;;;20.40;6.50;;;;;;;15.59;77.51;102566.47;4821740;29;20189;-67
2021/10/14 04:36:06;;;;;;;18.38;6.72;;;;;;;15.58;77.72;102570.84;4822723;29;20046;-67
2021/10/14 04:38:38;;;;;;;19.38;6.68;;;;;;;15.58;77.86;102564.69;4821368;29;21965;-66
2021/10/14 04:41:03;;;;;;;17.83;7.07;;;;;;;15.54;77.81;102563.75;4809973;29;20072;-69
2021/10/14 04:43:29;;;;;;;13.40;6.30;;;;;;;15.53;77.83;102564.63;4832335;29;20128;-67
2021/10/14 04:45:55;;;;;;;12.88;6.05;;;;;;;15.55;77.71;102564.66;4816797;29;20709;-67
2021/10/14 04:48:20;;;;;;;20.40;6.22;;;;;;;15.54;77.82;102557.63;4826528;29;20436;-67
2021/10/14 04:50:45;;;;;;;18.08;6.35;;;;;;;15.54;77.76;102558.50;4834406;29;20061;-68
2021/10/14 04:53:15;;;;;;;18.90;6.38;;;;;;;15.54;77.79;102563.75;4831001;29;20095;-68
2021/10/14 04:55:41;;;;;;;17.70;6.90;;;;;;;15.55;77.80;102556.75;4823343;29;20049;-68
2021/10/14 04:58:30;;;;;;;14.60;6.25;;;;;;;15.54;77.72;102555.00;4844815;29;20746;-68
2021/10/14 05:00:56;;;;;;;19.42;6.10;;;;;;;15.55;77.67;102556.75;4827697;29;20407;-68
2021/10/14 05:03:23;;;;;;;15.15;6.03;;;;;;;15.55;77.51;102559.41;4819250;29;20041;-66
2021/10/14 05:05:53;;;;;;;13.98;5.72;;;;;;;15.54;77.63;102566.38;4819216;29;20045;-66
2021/10/14 05:08:24;;;;;;;14.65;5.28;;;;;;;15.51;77.66;102560.13;4818574;29;20048;-67
2021/10/14 05:10:50;;;;;;;15.45;5.25;;;;;;;15.51;77.64;102562.75;4826057;29;20053;-67
2021/10/14 05:13:15;;;;;;;12.02;5.35;;;;;;;15.50;77.69;102558.34;4818105;29;20056;-66
2021/10/14 05:15:41;;;;;;;12.40;5.40;;;;;;;15.48;77.58;102560.97;4813667;29;20096;-67
2021/10/14 05:18:09;;;;;;;12.82;5.30;;;;;;;15.45;77.56;102553.00;4830810;29;20132;-67
2021/10/14 05:20:34;;;;;;;12.98;5.15;;;;;;;15.46;77.45;102560.06;4820520;29;20053;-67
2021/10/14 05:23:00;;;;;;;15.18;5.07;;;;;;;15.44;77.68;102553.88;4813317;29;20054;-67
2021/10/14 05:25:25;;;;;;;9.43;4.80;;;;;;;15.42;77.50;102552.97;4819629;29;20037;-67
2021/10/14 05:27:51;;;;;;;11.13;4.63;;;;;;;15.35;77.36;102551.06;4832428;29;20684;-67
2021/10/14 05:30:17;;;;;;;12.30;4.85;;;;;;;15.39;77.44;102553.78;4821997;29;20233;-66
2021/10/14 05:32:42;;;;;;;12.00;4.40;;;;;;;15.42;77.31;102552.97;4835395;29;20323;-67
2021/10/14 05:35:08;;;;;;;9.23;4.72;;;;;;;15.43;77.10;102552.09;4820049;29;20068;-66
2021/10/14 05:37:34;;;;;;;11.07;4.05;;;;;;;15.46;77.17;102556.53;4798848;29;20098;-66
2021/10/14 05:40:04;;;;;;;9.73;4.60;;;;;;;15.46;77.36;102560.06;4830526;29;20043;-67
2021/10/14 05:42:29;;;;;;;11.93;4.28;;;;;;;15.49;77.23;102549.56;4808657;29;20499;-67
2021/10/14 05:44:55;;;;;;;7.55;3.88;;;;;;;15.56;76.98;102548.00;4826408;29;20059;-68
2021/10/14 05:47:20;;;;;;;11.60;4.18;;;;;;;15.57;76.78;102549.78;4830178;29;20549;-67
2021/10/14 05:49:46;;;;;;;8.32;4.20;;;;;;;15.58;77.00;102549.81;4835714;29;20772;-68
2021/10/14 05:52:11;;;;;;;7.20;4.00;;;;;;;15.57;76.85;102545.41;4807342;29;20679;-67
2021/10/14 05:54:36;;;;;;;11.68;4.30;;;;;;;15.55;77.10;102552.41;4833039;29;20059;-66
2021/10/14 05:57:02;;;;;;;11.30;4.05;;;;;;;15.53;77.25;102545.31;4829662;29;21094;-67
2021/10/14 05:59:27;;;;;;;8.32;4.10;;;;;;;15.53;77.19;102535.69;4826653;29;20526;-67
2021/10/14 06:01:53;;;;;;;10.85;4.30;;;;;;;15.54;77.12;102542.72;4834968;29;20053;-67
2021/10/14 06:04:19;;;;;;;8.52;3.97;;;;;;;15.55;77.09;102547.13;4816058;29;20060;-67
2021/10/14 06:06:44;;;;;;;10.45;3.70;;;;;;;15.54;77.03;102544.47;4816567;29;20047;-67
2021/10/14 06:09:10;;;;;;;10.20;4.03;;;;;;;15.55;77.00;102547.13;4831088;29;20052;-67
2021/10/14 06:11:35;;;;;;;11.75;4.38;;;;;;;15.59;76.98;102548.06;4814091;29;20385;-67
2021/10/14 06:14:01;;;;;;;10.30;4.30;;;;;;;15.59;77.09;102540.19;4834237;29;20060;-67
2021/10/14 06:16:26;;;;;;;9.30;4.55;;;;;;;15.61;76.95;102539.38;4808269;29;20321;-67
2021/10/14 06:18:52;;;;;;;10.95;4.57;;;;;;;15.63;76.94;102536.75;4823286;29;20420;-67
2021/10/14 06:21:17;;;;;;;11.13;4.32;;;;;;;15.65;76.79;102541.19;4835426;29;20052;-67
2021/10/14 06:23:43;;;;;;;10.52;4.60;;;;;;;15.67;76.84;102538.59;4829633;29;20045;-66
2021/10/14 06:26:09;;;;;;;10.05;4.72;;;;;;;15.68;76.72;102540.34;4805936;29;20374;-67
2021/10/14 06:28:34;;;;;;;11.40;4.75;;;;;;;15.69;76.56;102531.59;4832867;29;20049;-66
2021/10/14 06:31:01;;;;;;;9.77;4.78;;;;;;;15.71;76.46;102532.53;4815059;29;20052;-67
2021/10/14 06:33:27;;;;;;;16.38;5.60;;;;;;;15.71;76.42;102528.16;4813049;29;20769;-68
2021/10/14 06:35:52;;;;;;;9.82;5.15;;;;;;;15.77;76.56;102528.28;4829095;29;20833;-68
2021/10/14 06:38:18;;;;;;;13.60;5.80;;;;;;;15.76;76.34;102533.50;4807085;29;20041;-66
2021/10/14 06:40:43;;;;;;;11.27;6.00;;;;;;;15.74;76.21;102532.56;4834915;29;20055;-66
2021/10/14 06:43:08;;;;;;;14.32;6.15;;;;;;;15.76;76.15;102531.75;4830080;29;20037;-67
2021/10/14 06:45:34;;;;;;;11.57;6.03;;;;;;;15.83;76.07;102523.13;4817033;29;20446;-67
2021/10/14 06:48:00;;;;;;;12.23;6.07;;;;;;;15.83;75.92;102538.91;4827762;29;20056;-67
2021/10/14 06:50:25;;;;;;;12.48;6.00;;;;;;;15.87;75.78;102528.41;4794890;29;20049;-67
2021/10/14 06:52:51;;;;;;;13.10;6.03;;;;;;;15.91;75.69;102528.53;4832820;29;21240;-67
2021/10/14 06:55:17;;;;;;;12.85;6.00;;;;;;;15.90;75.07;102537.28;4829381;29;20519;-68
2021/10/14 06:57:42;;;;;;;10.77;5.82;;;;;;;15.89;75.39;102538.13;4813026;29;20045;-68
2021/10/14 07:00:12;;;;;;;11.57;5.28;;;;;;;15.89;75.21;102535.50;4805736;29;20041;-69
2021/10/14 07:02:37;;;;;;;9.45;5.50;;;;;;;15.91;75.07;102525.91;4793405;29;20143;-68
2021/10/14 07:05:03;;;;;;;9.65;5.20;;;;;;;15.98;75.07;102534.78;4829682;29;20128;-68
2021/10/14 07:07:28;;;;;;;9.82;5.70;;;;;;;15.99;75.07;102539.16;4832603;29;20037;-68
2021/10/14 07:09:54;;;;;;;9.55;5.40;;;;;;;15.99;74.17;102532.16;4822135;29;20290;-68
2021/10/14 07:12:26;;;;;;;9.48;5.00;;;;;;;16.05;73.99;102532.25;4802868;29;20092;-68
2021/10/14 07:14:52;;;;;;;8.70;5.20;;;;;;;16.04;73.86;102529.63;4833636;29;20060;-69
2021/10/14 07:17:17;;;;;;;11.48;5.38;;;;;;;16.04;73.91;102532.25;4831945;29;20539;-67
2021/10/14 07:19:45;;;;;;;12.32;5.45;;;;;;;16.05;73.87;102540.16;4823861;29;20124;-68
2021/10/14 07:22:10;;;;;;;9.73;5.40;;;;;;;16.02;74.09;102536.59;4815023;29;20942;-67
2021/10/14 07:24:38;;;;;;;9.95;5.25;;;;;;;16.06;74.22;102528.78;4814368;29;20337;-67
2021/10/14 07:27:08;;;;;;;9.07;5.80;;;;;;;16.08;73.88;102534.97;4830461;29;20439;-68
2021/10/14 07:29:35;;;;;;;12.55;5.50;;;;;;;16.11;73.94;102531.47;4827843;29;20412;-68
2021/10/14 07:32:01;;;;;;;9.63;5.35;;;;;;;16.12;73.84;102534.16;4832169;29;20128;-68
2021/10/14 07:34:26;;;;;;;11.00;6.05;;;;;;;16.16;73.76;102524.56;4825133;29;20057;-67
2021/10/14 07:36:52;;;;;;;11.35;5.70;;;;;;;16.19;73.93;102530.75;4819324;29;20037;-68
2021/10/14 07:39:20;;;;;;;10.63;5.40;;;;;;;16.20;73.87;102523.75;4826651;29;20041;-68
2021/10/14 07:41:46;;;;;;;13.05;5.90;;;;;;;16.21;74.17;102522.91;4813330;29;20053;-67
2021/10/14 07:44:16;;;;;;;12.15;5.47;;;;;;;16.28;73.80;102527.41;4825712;29;20105;-68
2021/10/14 07:46:45;;;;;;;10.80;5.38;;;;;;;16.32;73.46;102531.84;4787066;29;20044;-68
2021/10/14 07:49:11;;;;;;;12.85;5.90;;;;;;;16.39;73.22;102517.03;4824991;29;20964;-67
2021/10/14 07:51:37;;;;;;;9.75;5.60;;;;;;;16.50;73.25;102521.59;4810186;29;20079;-67
2021/10/14 07:54:04;;;;;;;10.95;5.35;;;;;;;16.59;72.91;102527.03;4815129;29;20137;-68
2021/10/14 07:56:31;;;;;;;9.82;5.38;;;;;;;16.74;72.63;102523.75;4808423;29;20501;-67
2021/10/14 07:58:56;;;;;;;11.07;5.85;;;;;;;16.88;72.64;102521.31;4829780;29;20116;-68
2021/10/14 08:01:22;;;;;;;11.50;5.65;;;;;;;17.01;72.21;102528.53;4824086;29;20029;-67
2021/10/14 08:03:48;;;;;;;14.02;5.72;;;;;;;17.12;71.34;102526.91;4817910;29;20041;-67
2021/10/14 08:06:15;;;;;;;11.25;5.00;;;;;;;17.20;71.19;102527.84;4811642;29;20379;-67
2021/10/14 08:08:45;;;;;;;9.52;5.47;;;;;;;17.21;70.99;102532.28;4809651;29;20792;-67
2021/10/14 08:11:11;;;;;;;9.00;5.57;;;;;;;17.24;70.63;102537.59;4837517;29;20570;-68
2021/10/14 08:13:38;;;;;;;12.43;5.70;;;;;;;17.28;70.38;102522.69;4817843;29;20056;-68
2021/10/14 08:16:07;;;;;;;8.80;5.03;;;;;;;17.37;70.29;102521.06;4799971;29;20037;-68
2021/10/14 08:18:32;;;;;;;9.00;5.30;;;;;;;17.45;69.99;102522.00;4806684;29;20873;-67
2021/10/14 08:20:59;;;;;;;12.13;5.40;;;;;;;17.57;69.66;102529.16;4796409;29;20696;-67
2021/10/14 08:23:26;;;;;;;9.10;5.03;;;;;;;17.69;68.17;102528.44;4808876;29;20140;-67
2021/10/14 08:25:52;;;;;;;8.25;5.00;;;;;;;17.79;68.23;102535.59;4833377;29;21572;-67
2021/10/14 08:28:18;;;;;;;9.10;4.95;;;;;;;17.99;67.90;102528.75;4819719;29;20073;-67
2021/10/14 08:30:44;;;;;;;7.95;4.72;;;;;;;17.91;65.93;102519.91;4817092;29;20149;-67
2021/10/14 08:33:10;;;;;;;7.38;4.55;;;;;;;18.08;66.55;102522.69;4813951;29;20071;-67
2021/10/14 08:35:36;;;;;;;7.70;4.50;;;;;;;18.15;66.26;102519.22;4831429;29;20599;-66
2021/10/14 08:38:06;;;;;;;7.75;4.30;;;;;;;18.21;66.62;102524.56;4823391;29;21494;-66
2021/10/14 08:40:32;;;;;;;8.90;4.05;;;;;;;18.29;65.92;102512.31;4821534;29;20253;-66
2021/10/14 08:43:05;;;;;;;5.70;3.80;;;;;;;18.30;64.74;102532.53;4816033;29;20067;-65
2021/10/14 08:45:34;;;;;;;7.82;3.80;;;;;;;18.48;64.73;102529.19;4822687;29;20052;-67
2021/10/14 08:48:01;;;;;;;7.47;3.55;;;;;;;18.44;64.10;102520.31;4817296;29;20045;-66
2021/10/14 08:50:26;;;;;;;5.72;3.30;;;;;;;18.42;64.55;102527.34;4819774;29;20348;-68
2021/10/14 08:52:52;;;;;;;6.85;3.53;;;;;;;18.50;64.50;102524.75;4809152;29;20120;-67
2021/10/14 08:55:24;;;;;;;8.63;3.83;;;;;;;18.41;64.58;102522.97;4814362;29;20053;-67
2021/10/14 08:57:50;;;;;;;6.72;3.60;;;;;;;18.48;64.13;102527.38;4828534;29;20515;-67
2021/10/14 09:00:16;;;;;;;8.30;4.05;;;;;;;18.32;63.54;102528.16;4798636;29;20085;-66
2021/10/14 09:02:46;;;;;;;6.57;3.33;;;;;;;18.35;64.23;102528.19;4811308;29;20539;-66
2021/10/14 09:05:16;;;;;;;5.82;3.60;;;;;;;18.14;64.23;102523.63;4827025;29;20052;-67
2021/10/14 09:07:42;;;;;;;6.47;3.33;;;;;;;18.12;63.60;102530.63;4811044;29;20045;-67
2021/10/14 09:10:12;;;;;;;6.43;3.60;;;;;;;18.12;65.47;102535.03;4809784;29;20403;-67
2021/10/14 09:12:39;;;;;;;6.40;3.10;;;;;;;18.20;64.34;102528.94;4818869;29;20049;-67
2021/10/14 09:15:08;;;;;;;7.78;3.03;;;;;;;18.03;64.95;102530.56;4804622;29;20612;-67
2021/10/14 09:17:37;;;;;;;5.60;3.08;;;;;;;17.98;64.41;102536.69;4811300;29;21778;-67
2021/10/14 09:20:25;;;;;;;5.47;2.90;;;;;;;17.97;64.57;102533.16;4812946;29;20082;-68
2021/10/14 09:23:10;;;;;;;8.57;2.80;;;;;;;17.88;65.12;102535.69;4806592;29;20048;-67
2021/10/14 09:25:48;;;;;;;8.25;3.10;;;;;;;17.88;64.98;102525.13;4813410;29;20128;-67
2021/10/14 09:28:27;;;;;;;5.47;3.13;;;;;;;17.88;65.19;102521.59;4801553;29;20054;-66
2021/10/14 09:30:56;;;;;;;7.57;3.40;;;;;;;17.94;65.63;102526.94;4811585;29;20451;-68
2021/10/14 09:33:45;;;;;;;6.32;2.92;;;;;;;18.31;64.71;102525.50;4804746;29;20547;-67
2021/10/14 09:36:14;;;;;;;5.07;2.80;;;;;;;18.78;64.49;102518.84;4808163;29;20053;-69
2021/10/14 09:38:40;;;;;;;8.82;3.00;;;;;;;18.87;64.12;102510.06;4808486;29;20142;-68
2021/10/14 09:41:08;;;;;;;7.55;3.13;;;;;;;18.88;62.00;102510.06;4812977;29;20060;-68
2021/10/14 09:43:33;;;;;;;7.90;3.13;;;;;;;18.78;61.26;102507.38;4813065;29;20544;-68
2021/10/14 09:45:59;;;;;;;7.15;3.10;;;;;;;18.66;62.93;102500.28;4809071;29;20045;-66
2021/10/14 09:48:24;;;;;;;6.60;3.33;;;;;;;18.67;62.59;102503.78;4805820;29;20041;-67
2021/10/14 09:50:59;;;;;;;8.00;3.00;;;;;;;18.68;61.94;102508.19;4822709;29;20075;-68
2021/10/14 09:53:25;;;;;;;5.95;3.40;;;;;;;18.57;63.26;102510.78;4828802;29;20041;-68
2021/10/14 09:55:53;;;;;;;6.10;3.30;;;;;;;18.47;62.15;102507.16;4829676;29;20056;-68
2021/10/14 09:58:19;;;;;;;7.00;3.83;;;;;;;18.50;61.87;102508.91;4829961;29;20432;-67
2021/10/14 10:00:46;;;;;;;7.70;3.60;;;;;;;18.56;63.19;102501.06;4832980;29;20402;-67
2021/10/14 10:03:15;;;;;;;5.97;3.42;;;;;;;18.55;62.79;102499.28;4831343;29;20602;-67
2021/10/14 10:05:45;;;;;;;6.90;3.70;;;;;;;18.62;62.27;102511.69;4836677;29;20075;-67
2021/10/14 10:08:13;;;;;;;6.68;3.55;;;;;;;18.66;61.77;102507.31;4825180;29;20045;-68
2021/10/14 10:10:43;;;;;;;6.35;3.42;;;;;;;18.67;62.50;102498.47;4827761;29;20048;-68
2021/10/14 10:13:11;;;;;;;5.78;3.75;;;;;;;18.89;62.90;102503.03;4812844;29;20527;-67
2021/10/14 10:15:48;;;;;;;5.93;3.53;;;;;;;19.08;62.58;102501.34;4832460;29;20132;-68
2021/10/14 10:18:28;;;;;;;4.53;3.50;;;;;;;19.28;60.66;102495.25;4812303;29;20307;-66
2021/10/14 10:20:55;;;;;;;5.57;3.65;;;;;;;19.53;61.03;102496.22;4832219;29;20185;-68
2021/10/14 10:23:42;;;;;;;6.72;3.90;;;;;;;19.82;60.02;102491.00;4825522;29;20388;-68
2021/10/14 10:26:35;;;;;;;5.32;3.45;;;;;;;19.94;59.36;102479.53;4828075;29;20734;-68
2021/10/14 10:29:03;;;;;;;5.60;3.60;;;;;;;19.94;57.86;102490.13;4824223;29;20362;-67
2021/10/14 10:31:51;;;;;;;7.07;3.78;;;;;;;20.00;59.16;102484.84;4821441;29;20060;-67
2021/10/14 10:34:44;;;;;;;10.65;4.38;;;;;;;19.95;58.42;102481.28;4819697;29;20495;-66
2021/10/14 10:37:30;;;;;;;6.15;4.18;;;;;;;19.99;57.64;102477.78;4836723;29;20045;-67
2021/10/14 10:40:01;;;;;;;8.82;4.28;;;;;;;19.79;58.96;102486.59;4837802;29;20049;-67
2021/10/14 10:42:35;;;;;;;8.65;4.13;;;;;;;19.50;59.13;102487.41;4820452;29;20052;-68
2021/10/14 10:45:16;;;;;;;6.82;4.20;;;;;;;19.14;59.15;102486.41;4819049;29;20352;-67
2021/10/14 10:47:44;;;;;;;8.52;3.88;;;;;;;18.93;60.36;102487.19;4826699;29;20049;-67
2021/10/14 10:50:17;;;;;;;7.57;4.10;;;;;;;18.79;60.76;102490.63;4833462;29;20132;-67
2021/10/14 10:52:47;;;;;;;6.10;3.70;;;;;;;18.84;60.12;102473.06;4839410;29;20056;-68
2021/10/14 10:55:16;;;;;;;6.28;3.70;;;;;;;18.85;60.58;102482.72;4827808;29;20280;-67
2021/10/14 10:57:50;;;;;;;5.75;3.60;;;;;;;19.06;60.68;102477.56;4836414;29;20048;-67
2021/10/14 11:00:17;;;;;;;6.32;3.28;;;;;;;19.20;59.83;102473.22;4820268;29;20333;-68
2021/10/14 11:02:43;;;;;;;6.32;3.70;;;;;;;19.27;59.14;102467.03;4835199;29;20508;-67
2021/10/14 11:05:15;;;;;;;7.53;3.60;;;;;;;19.32;59.42;102465.31;4836206;29;20516;-67
2021/10/14 11:07:41;;;;;;;6.07;3.17;;;;;;;19.35;59.05;102469.69;4829664;29;20053;-66
2021/10/14 11:10:07;;;;;;;5.90;3.35;;;;;;;19.12;58.53;102466.13;4834551;29;20100;-66
2021/10/14 11:12:34;;;;;;;5.10;3.28;;;;;;;18.96;60.26;102457.25;4815467;29;20049;-68
2021/10/14 11:15:13;;;;;;;6.45;3.40;;;;;;;19.02;60.31;102460.81;4833582;29;20723;-67
2021/10/14 11:17:38;;;;;;;8.02;3.67;;;;;;;19.00;61.28;102461.66;4834750;29;20129;-68
2021/10/14 11:20:06;;;;;;;8.43;3.70;;;;;;;18.87;59.96;102454.56;4824466;29;20049;-67